Time;durP1;ratioP1;P1;durP2;ratioP2;P2;SDS_P1;SDS_P2;PMS_P1;PMS_P2;Temp;Humidity;BMP_temperature;BMP_pressure;BME280_temperature;BME280_humidity;BME280_pressure;Samples;Min_cycle;Max_cycle;Signal;HPM_P1;HPM_P2
2023/06/01 00:00:17;;;;;;;2.92;1.20;;;;;;;31.19;32.02;101044.09;7395783;19;20010;-65
2023/06/01 00:02:46;;;;;;;1.90;0.85;;;;;;;31.25;31.51;101036.75;7396653;19;20010;-65
2023/06/01 00:05:12;;;;;;;6.13;2.03;;;;;;;31.32;31.64;101043.78;7397480;19;20031;-65
2023/06/01 00:07:38;;;;;;;2.72;1.27;;;;;;;31.24;31.68;101041.00;7395098;19;20043;-66
2023/06/01 00:10:04;;;;;;;3.15;1.75;;;;;;;31.18;31.92;101037.63;7396587;19;20125;-66
2023/06/01 00:12:31;;;;;;;4.28;1.30;;;;;;;31.31;31.91;101045.91;7394839;19;20379;-65
2023/06/01 00:14:57;;;;;;;7.20;0.95;;;;;;;31.39;31.52;101049.44;7399047;19;20021;-65
2023/06/01 00:17:24;;;;;;;1.75;1.02;;;;;;;31.39;31.48;101049.44;7395546;19;20015;-65
2023/06/01 00:19:52;;;;;;;2.30;0.88;;;;;;;31.30;31.42;101046.47;7394846;19;20339;-65
2023/06/01 00:22:19;;;;;;;6.13;1.88;;;;;;;31.23;31.29;101045.22;7397852;19;20014;-65
2023/06/01 00:24:45;;;;;;;1.10;0.98;;;;;;;31.04;31.64;101052.91;7397173;19;20455;-66
2023/06/01 00:27:12;;;;;;;2.72;1.90;;;;;;;30.97;31.87;101050.88;7394111;19;20031;-66
2023/06/01 00:29:38;;;;;;;17.58;2.22;;;;;;;30.90;31.86;101052.50;7394515;19;20459;-65
2023/06/01 00:32:05;;;;;;;1.75;0.88;;;;;;;30.76;32.05;101048.34;7392030;19;20495;-65
2023/06/01 00:34:31;;;;;;;2.38;0.85;;;;;;;30.68;31.89;101059.19;7397213;19;20339;-65
2023/06/01 00:36:57;;;;;;;2.92;0.93;;;;;;;30.71;32.00;101049.34;7395414;19;20015;-65
2023/06/01 00:39:23;;;;;;;3.40;1.88;;;;;;;30.58;31.86;101055.44;7391201;19;20025;-66
2023/06/01 00:41:50;;;;;;;2.38;1.13;;;;;;;30.55;32.08;101045.09;7394057;19;20017;-65
2023/06/01 00:44:16;;;;;;;5.30;1.40;;;;;;;30.53;32.09;101054.31;7397279;19;20015;-65
2023/06/01 00:46:42;;;;;;;0.63;0.45;;;;;;;30.38;32.00;101048.69;7393856;19;20010;-66
2023/06/01 00:49:08;;;;;;;3.25;1.55;;;;;;;30.44;31.80;101051.31;7393567;19;20024;-66
2023/06/01 00:51:35;;;;;;;3.30;1.23;;;;;;;30.47;32.00;101050.16;7395218;19;20095;-66
2023/06/01 00:54:02;;;;;;;6.03;1.35;;;;;;;30.38;32.05;101042.94;7394804;19;20017;-66
2023/06/01 00:56:28;;;;;;;2.63;1.23;;;;;;;30.28;32.14;101041.25;7395448;19;20014;-65
2023/06/01 00:58:55;;;;;;;0.73;0.43;;;;;;;30.35;32.13;101054.84;7391993;19;20013;-65
2023/06/01 01:01:22;;;;;;;10.73;2.85;;;;;;;30.40;32.27;101046.00;7393743;19;20070;-66
2023/06/01 01:03:57;;;;;;;5.28;1.00;;;;;;;30.41;32.44;101041.00;7392192;19;20021;-65
2023/06/01 01:06:48;;;;;;;7.15;1.23;;;;;;;30.27;32.49;101036.88;7392560;19;20534;-66
2023/06/01 01:09:28;;;;;;;1.65;0.93;;;;;;;30.33;32.50;101040.28;7394671;19;20007;-66
2023/06/01 01:12:19;;;;;;;7.50;1.65;;;;;;;30.32;32.40;101041.66;7393142;19;20011;-66
2023/06/01 01:14:55;;;;;;;4.85;1.45;;;;;;;30.77;32.12;101038.38;7393895;19;20007;-66
2023/06/01 01:17:38;;;;;;;2.33;1.17;;;;;;;30.69;32.29;101043.44;7392815;19;20044;-66
2023/06/01 01:20:22;;;;;;;2.05;1.67;;;;;;;30.76;31.94;101042.59;7393039;19;20082;-66
2023/06/01 01:22:53;;;;;;;0.57;0.50;;;;;;;30.73;32.13;101044.53;7395967;19;20011;-67
2023/06/01 01:25:41;;;;;;;1.77;0.90;;;;;;;30.79;32.16;101041.44;7392503;19;20538;-66
2023/06/01 01:28:24;;;;;;;0.93;0.55;;;;;;;30.59;31.98;101045.44;7392977;19;20343;-67
2023/06/01 01:30:54;;;;;;;2.78;1.02;;;;;;;30.27;32.20;101037.63;7392910;19;20455;-67
2023/06/01 01:33:21;;;;;;;1.73;0.57;;;;;;;30.20;32.32;101031.91;7394366;19;20078;-66
2023/06/01 01:35:50;;;;;;;4.88;1.20;;;;;;;30.10;32.58;101045.41;7392807;19;20010;-65
2023/06/01 01:38:16;;;;;;;10.35;1.05;;;;;;;30.04;32.59;101030.50;7392038;19;20010;-65
2023/06/01 01:40:43;;;;;;;2.08;1.88;;;;;;;29.95;32.25;101040.53;7392611;19;20120;-66
2023/06/01 01:43:09;;;;;;;3.15;1.40;;;;;;;30.02;32.48;101030.34;7393974;19;20010;-66
2023/06/01 01:45:36;;;;;;;2.08;0.98;;;;;;;30.17;32.52;101033.13;7396453;19;20043;-66
2023/06/01 01:48:18;;;;;;;3.38;1.35;;;;;;;29.85;32.35;101039.63;7392805;19;20017;-66
2023/06/01 01:51:11;;;;;;;1.33;0.85;;;;;;;30.14;32.04;101025.66;7396569;19;20099;-66
2023/06/01 01:53:41;;;;;;;7.97;0.98;;;;;;;30.05;32.16;101023.41;7400727;19;20011;-66
2023/06/01 01:56:08;;;;;;;0.47;0.47;;;;;;;30.11;32.32;101029.69;7399390;19;20014;-66
2023/06/01 01:58:35;;;;;;;2.17;0.45;;;;;;;30.17;31.76;101016.59;7397026;19;20006;-66
2023/06/01 02:01:03;;;;;;;0.98;0.98;;;;;;;30.32;32.12;101015.78;7400226;19;20094;-66
2023/06/01 02:03:29;;;;;;;1.02;1.00;;;;;;;30.32;31.88;101019.41;7400805;19;20019;-65
2023/06/01 02:05:55;;;;;;;2.03;1.42;;;;;;;29.93;32.10;101020.25;7401167;19;20011;-66
2023/06/01 02:08:21;;;;;;;5.57;1.95;;;;;;;30.07;32.11;101012.84;7397672;19;20025;-66
2023/06/01 02:10:47;;;;;;;2.92;1.88;;;;;;;30.25;31.79;101013.69;7398019;19;20462;-66
2023/06/01 02:13:14;;;;;;;0.20;0.20;;;;;;;30.25;31.73;101022.31;7398382;19;20340;-66
2023/06/01 02:15:40;;;;;;;5.10;1.27;;;;;;;30.37;31.45;101017.63;7403812;19;20475;-66
2023/06/01 02:18:07;;;;;;;2.03;1.52;;;;;;;30.15;32.15;101018.56;7399417;19;20006;-66
2023/06/01 02:20:33;;;;;;;4.78;1.50;;;;;;;30.40;31.54;101022.22;7399002;19;20006;-65
2023/06/01 02:22:59;;;;;;;1.42;1.15;;;;;;;30.39;31.66;101021.47;7398693;19;20019;-66
2023/06/01 02:25:25;;;;;;;1.17;1.10;;;;;;;30.33;31.79;101023.03;7399317;19;20025;-66
2023/06/01 02:27:51;;;;;;;1.08;0.93;;;;;;;29.94;31.96;101028.28;7396972;19;20029;-66
2023/06/01 02:30:18;;;;;;;2.00;1.23;;;;;;;30.07;31.99;101015.72;7400414;19;20043;-66
2023/06/01 02:32:48;;;;;;;4.18;1.63;;;;;;;30.64;31.51;101015.69;7397971;19;20010;-66
2023/06/01 02:35:15;;;;;;;1.58;1.00;;;;;;;30.67;31.51;101011.63;7397183;19;20588;-66
2023/06/01 02:37:41;;;;;;;0.98;0.98;;;;;;;30.68;31.50;101010.28;7397682;19;20346;-65
2023/06/01 02:40:11;;;;;;;3.90;1.40;;;;;;;30.55;31.70;101013.47;7398623;19;20014;-65
2023/06/01 02:42:38;;;;;;;0.82;0.82;;;;;;;30.37;31.90;101017.63;7398294;19;20014;-66
2023/06/01 02:45:09;;;;;;;1.25;0.60;;;;;;;30.27;32.10;101020.38;7397997;19;20382;-65
2023/06/01 02:47:35;;;;;;;3.38;1.27;;;;;;;30.57;31.38;101013.63;7397031;19;20045;-65
2023/06/01 02:50:02;;;;;;;7.57;1.10;;;;;;;30.61;31.38;101013.97;7397261;19;20028;-66
2023/06/01 02:52:31;;;;;;;2.25;1.13;;;;;;;30.60;31.45;101015.34;7399913;19;20102;-66
2023/06/01 02:55:00;;;;;;;3.45;1.63;;;;;;;30.76;31.60;101019.59;7397971;19;20081;-66
2023/06/01 02:57:46;;;;;;;1.77;0.70;;;;;;;30.78;31.38;101016.88;7396447;19;20019;-66
2023/06/01 03:00:17;;;;;;;5.53;1.27;;;;;;;30.89;31.39;101021.41;7398256;19;20015;-65
2023/06/01 03:02:46;;;;;;;0.93;0.63;;;;;;;30.70;30.91;101010.44;7396053;19;20018;-66
2023/06/01 03:05:16;;;;;;;3.05;1.95;;;;;;;30.78;31.25;101011.13;7393901;19;20011;-76
2023/06/01 03:07:45;;;;;;;6.60;1.65;;;;;;;30.76;30.75;101010.97;7392671;19;20469;-76
2023/06/01 03:10:21;;;;;;;4.15;1.75;;;;;;;30.62;31.25;101009.78;7395035;19;20030;-76
2023/06/01 03:12:58;;;;;;;2.90;1.35;;;;;;;30.53;31.02;101019.81;7393186;19;20021;-77
2023/06/01 03:15:25;;;;;;;1.63;0.90;;;;;;;30.64;31.44;101007.06;7397447;19;20018;-77
2023/06/01 03:17:51;;;;;;;2.05;0.47;;;;;;;30.77;31.15;101009.63;7396803;19;20050;-76
2023/06/01 03:20:17;;;;;;;1.08;0.80;;;;;;;30.51;31.12;101010.25;7398745;19;20026;-77
2023/06/01 03:22:45;;;;;;;2.15;0.45;;;;;;;30.54;31.24;101009.06;7397052;19;20054;-77
2023/06/01 03:25:12;;;;;;;2.15;1.48;;;;;;;30.61;31.04;101003.25;7397517;19;20022;-76
2023/06/01 03:27:39;;;;;;;8.10;1.23;;;;;;;30.65;30.95;101003.59;7392386;19;20473;-76
2023/06/01 03:30:10;;;;;;;1.33;0.75;;;;;;;30.67;31.02;101003.00;7396801;19;20018;-76
2023/06/01 03:32:42;;;;;;;3.15;0.55;;;;;;;30.57;30.82;101007.88;7392999;19;20019;-76
2023/06/01 03:35:09;;;;;;;2.08;1.45;;;;;;;30.58;30.95;101009.44;7393766;19;20070;-76
2023/06/01 03:37:37;;;;;;;1.42;1.33;;;;;;;30.55;30.78;101007.72;7398454;19;20022;-76
2023/06/01 03:40:10;;;;;;;1.20;0.90;;;;;;;30.62;30.94;101006.91;7393301;19;20018;-76
2023/06/01 03:42:37;;;;;;;2.00;1.73;;;;;;;30.36;31.14;101007.50;7392381;19;20045;-76
2023/06/01 03:45:04;;;;;;;0.63;0.63;;;;;;;30.33;31.44;101011.53;7392630;19;20014;-76
2023/06/01 03:47:31;;;;;;;3.35;1.30;;;;;;;30.32;31.60;101010.03;7392161;19;20031;-76
2023/06/01 03:49:58;;;;;;;6.40;1.67;;;;;;;30.32;31.31;101010.03;7393561;19;20099;-76
2023/06/01 03:52:25;;;;;;;3.03;1.20;;;;;;;30.27;31.53;101008.13;7394896;19;20077;-77
2023/06/01 03:54:52;;;;;;;5.32;1.13;;;;;;;30.37;31.47;101006.13;7392734;19;20057;-76
2023/06/01 03:57:41;;;;;;;1.02;0.95;;;;;;;30.51;31.19;100998.75;7391975;19;20093;-76
2023/06/01 04:00:28;;;;;;;3.08;1.20;;;;;;;30.48;31.75;100999.91;7392233;19;20488;-77
2023/06/01 04:02:59;;;;;;;1.77;1.25;;;;;;;30.45;31.59;100987.47;7390553;19;20018;-78
2023/06/01 04:05:26;;;;;;;2.38;1.30;;;;;;;30.67;31.34;100982.84;7393935;19;20018;-77
2023/06/01 04:07:54;;;;;;;2.17;0.98;;;;;;;30.71;31.44;100983.19;7391626;19;20041;-76
2023/06/01 04:10:21;;;;;;;5.68;1.90;;;;;;;30.55;31.32;100981.84;7394106;19;20010;-78
2023/06/01 04:12:48;;;;;;;2.53;1.15;;;;;;;30.39;31.60;100983.31;7393455;19;20366;-76
2023/06/01 04:15:16;;;;;;;5.25;1.63;;;;;;;30.32;31.66;100987.78;7391878;19;20010;-76
2023/06/01 04:17:43;;;;;;;5.90;1.80;;;;;;;30.29;31.72;100982.41;7394193;19;20018;-77
2023/06/01 04:20:15;;;;;;;4.22;1.42;;;;;;;30.19;31.25;100985.16;7392095;19;20035;-76
2023/06/01 04:22:43;;;;;;;1.00;0.95;;;;;;;30.19;31.37;100993.06;7395068;19;20361;-76
2023/06/01 04:25:16;;;;;;;4.32;1.33;;;;;;;30.12;31.71;100985.25;7392085;19;20023;-76
2023/06/01 04:27:45;;;;;;;2.13;0.77;;;;;;;30.12;31.67;100988.13;7390731;19;20025;-76
2023/06/01 04:30:13;;;;;;;2.17;1.70;;;;;;;30.06;31.62;100982.59;7394444;19;20014;-76
2023/06/01 04:32:39;;;;;;;1.73;1.40;;;;;;;30.10;31.15;100988.72;7391227;19;20044;-77
2023/06/01 04:35:08;;;;;;;3.45;1.33;;;;;;;30.12;31.35;100991.00;7390965;19;20015;-76
2023/06/01 04:37:36;;;;;;;5.18;1.58;;;;;;;30.12;31.34;100991.00;7392596;19;20035;-76
2023/06/01 04:40:07;;;;;;;1.05;1.05;;;;;;;30.10;31.28;100985.84;7390852;19;20013;-77
2023/06/01 04:42:34;;;;;;;3.83;2.58;;;;;;;30.43;31.17;100987.28;7392483;19;20085;-76
2023/06/01 04:45:07;;;;;;;1.23;1.13;;;;;;;30.77;30.74;100980.84;7389776;19;20081;-76
2023/06/01 04:47:39;;;;;;;1.63;0.98;;;;;;;30.75;30.73;100989.31;7391723;19;20018;-76
2023/06/01 04:50:08;;;;;;;1.55;1.27;;;;;;;30.63;30.89;100979.66;7391033;19;20030;-77
2023/06/01 04:52:38;;;;;;;2.75;1.13;;;;;;;30.76;30.96;100979.31;7392782;19;20390;-76
2023/06/01 04:55:05;;;;;;;3.23;1.50;;;;;;;30.91;30.69;100984.94;7392546;19;20031;-75
2023/06/01 04:57:35;;;;;;;2.03;0.77;;;;;;;30.93;30.57;100976.47;7391239;19;20019;-77
2023/06/01 05:00:11;;;;;;;8.47;1.77;;;;;;;31.02;30.43;100984.44;7390790;19;20018;-77
2023/06/01 05:02:37;;;;;;;1.25;0.85;;;;;;;30.75;30.42;100977.03;7390332;19;20266;-77
2023/06/01 05:05:05;;;;;;;3.92;1.20;;;;;;;30.52;30.69;100980.13;7394493;19;20086;-77
2023/06/01 05:07:31;;;;;;;1.35;0.93;;;;;;;30.28;31.13;100975.13;7390548;19;20022;-77
2023/06/01 05:09:58;;;;;;;0.73;0.73;;;;;;;30.28;31.22;100980.88;7390867;19;20038;-77
2023/06/01 05:12:25;;;;;;;6.75;1.40;;;;;;;30.34;31.11;100978.59;7390640;19;20007;-77
2023/06/01 05:14:51;;;;;;;3.40;1.33;;;;;;;30.28;31.29;100975.13;7394699;19;20021;-77
2023/06/01 05:17:17;;;;;;;1.83;0.98;;;;;;;30.31;31.38;100971.13;7392174;19;20018;-77
2023/06/01 05:19:44;;;;;;;6.90;1.52;;;;;;;30.54;31.17;100980.31;7391046;19;20098;-77
2023/06/01 05:22:11;;;;;;;4.10;1.10;;;;;;;30.69;31.24;100978.03;7393411;19;20006;-77
2023/06/01 05:24:37;;;;;;;2.65;1.35;;;;;;;30.76;30.71;100982.19;7392327;19;20469;-78
2023/06/01 05:27:04;;;;;;;2.95;1.63;;;;;;;30.89;30.85;100979.03;7393201;19;20011;-77
2023/06/01 05:29:31;;;;;;;4.60;1.38;;;;;;;30.76;31.14;100985.06;7391471;19;20010;-77
2023/06/01 05:31:57;;;;;;;2.25;1.30;;;;;;;30.95;30.50;100978.78;7393386;19;20026;-77
2023/06/01 05:34:23;;;;;;;1.98;0.98;;;;;;;31.02;30.89;100983.66;7388040;19;20021;-77
2023/06/01 05:36:49;;;;;;;2.05;0.88;;;;;;;30.99;30.29;100976.97;7389939;19;20074;-77
2023/06/01 05:39:16;;;;;;;2.47;1.65;;;;;;;30.97;30.44;100982.56;7391234;19;20373;-77
2023/06/01 05:41:42;;;;;;;6.03;2.00;;;;;;;30.81;30.67;100986.19;7389100;19;20014;-77
2023/06/01 05:44:09;;;;;;;3.17;1.20;;;;;;;30.94;30.37;100988.75;7387690;19;20014;-77
2023/06/01 05:46:35;;;;;;;3.50;0.70;;;;;;;31.15;30.39;100986.97;7388947;19;20034;-77
2023/06/01 05:49:01;;;;;;;5.03;1.17;;;;;;;31.18;30.34;100985.03;7386882;19;20098;-77
2023/06/01 05:51:28;;;;;;;6.32;0.85;;;;;;;31.14;30.59;100996.97;7388689;19;20355;-77
2023/06/01 05:53:55;;;;;;;2.75;0.82;;;;;;;31.21;30.55;100993.22;7386444;19;20011;-78
2023/06/01 05:56:21;;;;;;;5.85;1.30;;;;;;;31.24;30.52;100980.53;7389329;19;20018;-77
2023/06/01 05:58:52;;;;;;;6.45;2.40;;;;;;;31.23;30.49;100981.88;7388577;19;20050;-77
2023/06/01 06:01:19;;;;;;;;;;;;;;;30.36;31.06;100988.16;7388770;19;20025;-77
2023/06/01 06:03:45;;;;;;;2.15;1.10;;;;;;;30.00;31.63;100984.94;7388934;19;19910;-77
2023/06/01 06:06:11;;;;;;;2.30;1.55;;;;;;;29.88;32.16;100983.88;7391250;19;20408;-77
2023/06/01 06:08:37;;;;;;;4.28;1.00;;;;;;;29.72;32.18;100986.03;7387373;19;20022;-77
2023/06/01 06:11:03;;;;;;;3.20;1.45;;;;;;;29.70;32.33;100991.63;7388922;19;20377;-77
2023/06/01 06:13:30;;;;;;;3.08;1.05;;;;;;;29.55;32.47;100985.94;7391102;19;20018;-76
2023/06/01 06:15:56;;;;;;;4.47;1.20;;;;;;;29.32;32.50;100990.28;7389679;19;20037;-77
2023/06/01 06:18:22;;;;;;;0.55;0.55;;;;;;;29.08;32.54;100991.66;7389607;19;20078;-77
2023/06/01 06:20:48;;;;;;;2.35;0.95;;;;;;;29.03;32.75;100984.03;7388618;19;20015;-77
2023/06/01 06:23:14;;;;;;;2.28;1.40;;;;;;;29.03;33.32;100978.28;7391859;19;20011;-76
2023/06/01 06:25:41;;;;;;;1.85;0.85;;;;;;;30.51;31.87;100975.75;7388458;19;20018;-77
2023/06/01 06:28:08;;;;;;;1.45;0.90;;;;;;;30.88;31.64;100979.63;7390456;19;20018;-77
2023/06/01 06:30:34;;;;;;;4.38;1.67;;;;;;;30.93;31.40;100972.88;7387847;19;20014;-78
2023/06/01 06:33:00;;;;;;;3.20;1.20;;;;;;;31.00;31.19;100975.63;7388438;19;20085;-77
2023/06/01 06:35:27;;;;;;;6.20;1.83;;;;;;;31.26;30.91;100985.69;7391881;19;20018;-77
2023/06/01 06:37:53;;;;;;;2.80;1.02;;;;;;;31.38;31.11;100970.16;7394337;19;20090;-77
2023/06/01 06:40:20;;;;;;;3.88;0.95;;;;;;;31.50;30.82;100978.31;7395133;19;20025;-77
2023/06/01 06:42:46;;;;;;;2.33;1.60;;;;;;;31.39;30.63;100971.69;7393606;19;20016;-77
2023/06/01 06:45:12;;;;;;;3.20;1.88;;;;;;;31.00;30.73;100969.88;7400320;19;20014;-77
2023/06/01 06:47:38;;;;;;;4.85;1.42;;;;;;;31.67;30.59;100973.25;7394399;19;20110;-77
2023/06/01 06:50:07;;;;;;;3.42;0.90;;;;;;;31.93;30.12;100978.25;7394225;19;20355;-77
2023/06/01 06:52:33;;;;;;;3.58;1.42;;;;;;;31.96;30.09;100976.34;7398654;19;20018;-77
2023/06/01 06:54:59;;;;;;;0.88;0.52;;;;;;;31.97;30.12;100977.84;7397947;19;20018;-77
2023/06/01 06:57:25;;;;;;;1.95;1.15;;;;;;;32.00;30.00;100982.41;7395304;19;20006;-77
2023/06/01 06:59:51;;;;;;;2.95;1.60;;;;;;;32.12;29.63;100978.38;7398821;19;20007;-77
2023/06/01 07:02:18;;;;;;;3.95;1.02;;;;;;;31.41;30.52;100980.53;7398197;19;20085;-77
2023/06/01 07:04:45;;;;;;;3.63;1.35;;;;;;;30.78;31.38;100975.84;7397912;19;20014;-77
2023/06/01 07:07:11;;;;;;;5.25;1.42;;;;;;;30.77;31.65;100975.09;7398191;19;20011;-77
2023/06/01 07:09:37;;;;;;;3.45;1.13;;;;;;;30.82;31.69;100970.47;7397532;19;20481;-77
2023/06/01 07:12:05;;;;;;;1.58;0.88;;;;;;;30.82;31.43;100974.06;7394762;19;20089;-77
2023/06/01 07:14:31;;;;;;;5.25;1.17;;;;;;;30.63;32.19;100971.00;7393931;19;20014;-78
2023/06/01 07:16:58;;;;;;;4.13;1.50;;;;;;;30.83;31.96;100975.59;7394964;19;20031;-77
2023/06/01 07:19:24;;;;;;;6.57;1.15;;;;;;;30.84;31.54;100967.75;7394449;19;20031;-77
2023/06/01 07:21:50;;;;;;;10.68;1.95;;;;;;;31.04;31.64;100970.22;7397624;19;20021;-77
2023/06/01 07:24:19;;;;;;;7.88;2.55;;;;;;;31.08;31.76;100981.31;7393348;19;20044;-77
2023/06/01 07:26:46;;;;;;;4.32;1.33;;;;;;;31.38;31.57;100978.81;7392354;19;20026;-77
2023/06/01 07:29:14;;;;;;;3.28;1.33;;;;;;;31.87;31.34;100977.00;7393619;19;20529;-78
2023/06/01 07:31:40;;;;;;;3.80;1.58;;;;;;;31.79;31.04;100980.03;7394016;19;20021;-77
2023/06/01 07:34:07;;;;;;;3.75;1.13;;;;;;;32.62;30.88;100989.47;7394679;19;20028;-77
2023/06/01 07:36:36;;;;;;;4.45;1.23;;;;;;;33.56;29.30;100984.38;7394811;19;20736;-78
2023/06/01 07:39:06;;;;;;;1.50;1.08;;;;;;;33.89;29.50;100985.34;7394844;19;20003;-79
2023/06/01 07:41:33;;;;;;;1.08;0.93;;;;;;;34.07;29.07;100986.66;7393763;19;20342;-77
2023/06/01 07:43:59;;;;;;;3.15;1.52;;;;;;;33.91;28.99;100982.59;7392257;19;20044;-77
2023/06/01 07:46:25;;;;;;;2.25;1.30;;;;;;;33.90;28.85;100986.09;7392840;19;20027;-77
2023/06/01 07:48:51;;;;;;;9.32;1.13;;;;;;;33.92;29.27;100983.34;7390802;19;20014;-77
2023/06/01 07:51:18;;;;;;;7.00;2.05;;;;;;;33.71;28.81;100991.94;7393260;19;20545;-77
2023/06/01 07:53:44;;;;;;;2.15;1.63;;;;;;;33.89;28.39;100993.25;7392170;19;20482;-77
2023/06/01 07:56:10;;;;;;;3.22;1.00;;;;;;;34.18;28.53;100994.69;7393801;19;20028;-76
2023/06/01 07:58:37;;;;;;;5.63;1.52;;;;;;;34.22;28.59;100994.22;7393456;19;20014;-78
2023/06/01 08:01:04;;;;;;;1.25;0.55;;;;;;;34.13;28.83;100995.78;7394650;19;20023;-77
2023/06/01 08:03:33;;;;;;;3.72;1.40;;;;;;;33.99;28.69;100994.75;7394758;19;20086;-78
2023/06/01 08:06:04;;;;;;;1.17;0.63;;;;;;;34.20;28.71;101003.50;7392864;19;20022;-78
2023/06/01 08:08:31;;;;;;;11.50;1.38;;;;;;;33.39;28.93;100993.19;7394368;19;20355;-77
2023/06/01 08:10:57;;;;;;;3.83;0.88;;;;;;;34.17;28.57;100987.41;7392994;19;20015;-77
2023/06/01 08:13:25;;;;;;;2.42;1.10;;;;;;;34.20;28.17;100989.03;7395139;19;20014;-78
2023/06/01 08:15:52;;;;;;;4.05;0.80;;;;;;;34.37;28.85;100993.84;7393225;19;20123;-77
2023/06/01 08:18:23;;;;;;;3.17;1.17;;;;;;;34.55;28.60;100997.25;7392541;19;20022;-77
2023/06/01 08:20:49;;;;;;;4.38;1.52;;;;;;;34.55;28.12;100986.47;7392833;19;20052;-77
2023/06/01 08:23:22;;;;;;;5.38;0.80;;;;;;;34.66;28.14;100990.81;7395028;19;20464;-77
2023/06/01 08:25:48;;;;;;;3.00;1.35;;;;;;;34.61;27.93;100997.72;7391888;19;20025;-77
2023/06/01 08:28:14;;;;;;;1.52;1.30;;;;;;;34.56;28.27;100993.00;7392326;19;20018;-77
2023/06/01 08:30:41;;;;;;;1.33;0.85;;;;;;;34.73;28.10;100995.63;7391566;19;20011;-77
2023/06/01 08:33:07;;;;;;;7.18;1.27;;;;;;;34.69;28.04;100996.13;7390332;19;20025;-77
2023/06/01 08:35:34;;;;;;;2.80;0.73;;;;;;;34.45;27.84;100999.44;7398233;19;20018;-78
2023/06/01 08:38:01;;;;;;;3.42;0.52;;;;;;;34.54;28.21;100987.09;7393409;19;20011;-77
2023/06/01 08:40:27;;;;;;;2.25;0.70;;;;;;;34.73;28.37;100984.06;7392707;19;20500;-77
2023/06/01 08:43:18;;;;;;;4.63;1.00;;;;;;;34.85;28.32;100979.09;7389985;19;20023;-78
2023/06/01 08:45:45;;;;;;;1.92;1.30;;;;;;;34.74;28.04;100985.59;7392833;19;20018;-78
2023/06/01 08:48:16;;;;;;;7.00;1.40;;;;;;;34.65;27.89;100984.28;7392145;19;20481;-78
2023/06/01 08:50:48;;;;;;;2.55;0.50;;;;;;;34.64;28.16;100987.78;7390257;19;20015;-77
2023/06/01 08:53:18;;;;;;;2.95;1.48;;;;;;;34.46;28.09;100990.13;7393800;19;20022;-78
2023/06/01 08:55:55;;;;;;;3.40;0.88;;;;;;;34.46;28.00;100989.41;7393617;19;20014;-78
2023/06/01 08:58:21;;;;;;;4.93;1.33;;;;;;;34.56;28.19;100987.22;7391886;19;20038;-78
2023/06/01 09:00:53;;;;;;;3.53;0.85;;;;;;;34.98;27.90;100984.31;7387721;19;20378;-78
2023/06/01 09:03:20;;;;;;;1.98;1.02;;;;;;;35.09;27.56;100980.00;7388721;19;20022;-78
2023/06/01 09:05:46;;;;;;;3.50;0.90;;;;;;;33.75;28.80;100981.44;7389828;19;20021;-78
2023/06/01 09:08:12;;;;;;;4.65;0.85;;;;;;;33.43;29.23;100981.94;7389819;19;20015;-78
2023/06/01 09:10:38;;;;;;;4.50;0.82;;;;;;;33.40;29.28;100980.25;7390585;19;20476;-78
2023/06/01 09:13:04;;;;;;;8.18;1.67;;;;;;;33.27;29.32;100978.59;7391759;19;20107;-78
2023/06/01 09:15:31;;;;;;;5.88;1.05;;;;;;;33.26;29.65;100973.44;7394680;19;20015;-78
2023/06/01 09:18:10;;;;;;;3.15;1.75;;;;;;;33.34;29.68;100982.69;7391472;19;20025;-78
2023/06/01 09:20:40;;;;;;;3.72;1.48;;;;;;;33.60;29.28;100981.78;7387913;19;20358;-79
2023/06/01 09:23:06;;;;;;;2.75;1.33;;;;;;;33.67;28.96;100980.09;7392256;19;20325;-78
2023/06/01 09:25:33;;;;;;;1.70;1.02;;;;;;;33.55;29.27;100983.59;7394330;19;20366;-78
2023/06/01 09:28:01;;;;;;;3.47;1.20;;;;;;;33.49;29.27;100983.13;7388938;19;20010;-78
2023/06/01 09:30:42;;;;;;;2.63;1.23;;;;;;;33.41;28.98;100978.91;7391090;19;20024;-78
2023/06/01 09:33:16;;;;;;;4.55;0.88;;;;;;;33.31;29.41;100981.06;7388542;19;20469;-78
2023/06/01 09:35:50;;;;;;;8.18;1.33;;;;;;;33.54;29.25;100973.44;7390707;19;20048;-78
2023/06/01 09:38:24;;;;;;;3.30;1.38;;;;;;;33.94;29.11;100964.00;7390159;19;20365;-77
2023/06/01 09:40:58;;;;;;;2.53;1.30;;;;;;;33.94;29.43;100969.81;7390286;19;20350;-76
2023/06/01 09:43:25;;;;;;;1.95;1.10;;;;;;;33.79;28.79;100973.03;7388855;19;20434;-76
2023/06/01 09:46:08;;;;;;;3.45;0.55;;;;;;;33.68;29.08;100967.91;7391150;19;20018;-76
2023/06/01 09:48:35;;;;;;;1.88;0.95;;;;;;;33.84;29.54;100974.88;7388759;19;20018;-77
2023/06/01 09:51:01;;;;;;;7.72;1.02;;;;;;;34.11;29.39;100981.16;7391038;19;20022;-76
2023/06/01 09:53:27;;;;;;;1.25;0.82;;;;;;;34.49;29.06;100971.53;7388199;19;20034;-76
2023/06/01 09:56:01;;;;;;;3.25;1.45;;;;;;;34.25;28.84;100972.75;7389390;19;20018;-76
2023/06/01 09:58:27;;;;;;;2.35;1.05;;;;;;;34.00;28.84;100967.34;7390225;19;20018;-76
2023/06/01 10:00:54;;;;;;;2.20;0.55;;;;;;;34.08;28.65;100972.97;7390125;19;20032;-76
2023/06/01 10:03:22;;;;;;;2.45;0.85;;;;;;;33.93;28.72;100962.50;7387909;19;20007;-77
2023/06/01 10:05:49;;;;;;;4.07;0.60;;;;;;;33.75;29.03;100963.31;7390176;19;20022;-76
2023/06/01 10:08:17;;;;;;;2.05;0.60;;;;;;;33.52;28.89;100967.50;7388475;19;20026;-76
2023/06/01 10:10:48;;;;;;;3.50;0.43;;;;;;;33.36;29.24;100962.63;7389681;19;20007;-77
2023/06/01 10:13:14;;;;;;;1.83;0.77;;;;;;;33.28;29.47;100965.69;7398941;19;20013;-76
2023/06/01 10:15:41;;;;;;;2.10;0.60;;;;;;;33.39;29.51;100961.41;7396030;19;20078;-79
2023/06/01 10:18:07;;;;;;;2.17;0.60;;;;;;;33.54;29.43;100967.66;7397860;19;20018;-76
2023/06/01 10:20:35;;;;;;;5.97;0.50;;;;;;;34.12;29.88;100961.69;7398732;19;20469;-76
2023/06/01 10:23:02;;;;;;;1.65;0.77;;;;;;;34.87;29.35;100964.78;7400923;19;20019;-76
2023/06/01 10:25:33;;;;;;;1.75;1.08;;;;;;;36.42;27.80;100951.66;7399941;19;20006;-76
2023/06/01 10:28:07;;;;;;;1.55;0.47;;;;;;;37.00;27.78;100961.03;7396721;19;20018;-79
2023/06/01 10:30:34;;;;;;;2.30;0.98;;;;;;;37.23;26.99;100963.81;7396997;19;20047;-78
2023/06/01 10:33:01;;;;;;;5.75;0.85;;;;;;;37.58;26.37;100960.00;7396497;19;20039;-78
2023/06/01 10:35:30;;;;;;;8.75;0.75;;;;;;;37.61;26.63;100950.00;7400677;19;20014;-78
2023/06/01 10:38:16;;;;;;;3.30;0.47;;;;;;;37.64;26.70;100946.56;7397296;19;20015;-77
2023/06/01 10:40:44;;;;;;;1.45;0.70;;;;;;;37.75;26.44;100950.81;7396081;19;20090;-78
2023/06/01 10:43:38;;;;;;;1.80;0.57;;;;;;;37.57;26.45;100943.97;7395589;19;20479;-78
2023/06/01 10:46:34;;;;;;;8.38;0.85;;;;;;;37.66;26.56;100949.59;7395707;19;20017;-78
2023/06/01 10:49:02;;;;;;;2.05;0.50;;;;;;;37.60;26.66;100942.69;7393289;19;20588;-78
2023/06/01 10:51:29;;;;;;;1.70;0.90;;;;;;;37.76;25.97;100941.44;7396674;19;20078;-78
2023/06/01 10:54:26;;;;;;;1.20;0.40;;;;;;;38.46;26.54;100941.63;7395177;19;20043;-78
2023/06/01 10:57:21;;;;;;;1.85;0.75;;;;;;;38.85;25.61;100941.47;7394484;19;20025;-79
2023/06/01 11:00:17;;;;;;;4.50;0.65;;;;;;;38.85;25.59;100940.72;7393842;19;20378;-78
2023/06/01 11:02:54;;;;;;;3.15;0.80;;;;;;;38.76;25.85;100933.72;7395329;19;20527;-79
2023/06/01 11:05:50;;;;;;;2.72;0.45;;;;;;;38.52;25.89;100939.03;7398374;19;20503;-78
2023/06/01 11:08:29;;;;;;;1.63;0.60;;;;;;;38.34;25.70;100943.88;7394348;19;20022;-79
2023/06/01 11:10:58;;;;;;;1.58;0.43;;;;;;;38.59;25.45;100937.94;7395522;19;20046;-78
2023/06/01 11:13:35;;;;;;;3.13;0.88;;;;;;;38.60;25.79;100932.84;7396699;19;20041;-79
2023/06/01 11:16:04;;;;;;;1.30;0.40;;;;;;;37.99;25.27;100943.41;7395444;19;20041;-79
2023/06/01 11:18:58;;;;;;;1.80;1.10;;;;;;;37.66;25.67;100932.16;7394527;19;20019;-79
2023/06/01 11:21:33;;;;;;;1.55;0.85;;;;;;;37.57;25.85;100930.19;7396716;19;20350;-79
2023/06/01 11:24:04;;;;;;;4.15;0.60;;;;;;;37.37;25.82;100934.84;7392913;19;20081;-79
2023/06/01 11:26:32;;;;;;;2.50;0.73;;;;;;;37.30;25.32;100941.69;7395641;19;20015;-80
2023/06/01 11:29:10;;;;;;;4.13;0.68;;;;;;;37.39;26.21;100931.28;7393260;19;20030;-79
2023/06/01 11:32:10;;;;;;;2.75;1.38;;;;;;;37.81;25.70;100930.81;7394378;19;20015;-77
2023/06/01 11:34:38;;;;;;;2.80;1.15;;;;;;;38.26;25.76;100914.38;7392618;19;20010;-77